createdAt,value
2017-08-31T00:00:10.895Z,54.4
2017-08-31T00:01:13.288Z,54.7
2017-08-31T00:02:15.679Z,54.7
2017-08-31T00:03:18.071Z,54.7
2017-08-31T00:04:20.461Z,54.7
2017-08-31T00:05:22.852Z,54.7
2017-08-31T00:06:25.241Z,54.7
2017-08-31T00:07:27.633Z,54.7
2017-08-31T00:08:30.025Z,54.7
2017-08-31T00:09:32.760Z,54.7
2017-08-31T00:10:35.493Z,54.7
2017-08-31T00:11:37.888Z,54.7
2017-08-31T00:12:40.275Z,54.7
2017-08-31T00:13:42.668Z,54.7
2017-08-31T00:14:45.059Z,54.7
2017-08-31T00:15:47.453Z,54.7
2017-08-31T00:16:49.844Z,54.7
2017-08-31T00:17:52.237Z,54.7
2017-08-31T00:18:54.968Z,54.7
2017-08-31T00:19:57.361Z,54.7
2017-08-31T00:20:59.754Z,54.7
2017-08-31T00:22:02.145Z,54.7
2017-08-31T00:23:04.542Z,54.6
2017-08-31T00:24:06.960Z,54.6
2017-08-31T00:25:09.371Z,54.6
2017-08-31T00:26:11.783Z,55.1
2017-08-31T00:27:14.193Z,55.8
2017-08-31T00:28:16.602Z,56.2
2017-08-31T00:29:19.013Z,56.5
2017-08-31T00:30:21.424Z,56.8
2017-08-31T00:31:23.833Z,57.1
2017-08-31T00:32:26.242Z,57.4
2017-08-31T00:33:28.662Z,57.7
2017-08-31T00:34:31.073Z,58
2017-08-31T00:35:33.490Z,58.2
2017-08-31T00:36:35.902Z,58.3
2017-08-31T00:37:38.318Z,58.5
2017-08-31T00:38:40.729Z,58.6
2017-08-31T00:39:43.139Z,58.9
2017-08-31T00:40:45.548Z,59.1
2017-08-31T00:41:47.956Z,59.2
2017-08-31T00:42:50.380Z,59.4
2017-08-31T00:43:52.793Z,59.5
2017-08-31T00:44:55.202Z,59.6
2017-08-31T00:45:57.616Z,59.8
2017-08-31T00:47:00.032Z,59.8
2017-08-31T00:48:02.449Z,59.9
2017-08-31T00:49:04.865Z,60
2017-08-31T00:50:07.273Z,60
2017-08-31T00:51:09.692Z,60
2017-08-31T00:52:12.109Z,60.1
2017-08-31T00:53:14.857Z,60.1
2017-08-31T00:54:17.268Z,60.2
2017-08-31T00:55:19.682Z,60.3
2017-08-31T00:56:22.087Z,60.3
2017-08-31T00:57:24.501Z,60.4
2017-08-31T00:58:26.917Z,60.4
2017-08-31T00:59:29.325Z,60.5
2017-08-31T01:00:31.742Z,60.6
2017-08-31T01:01:34.148Z,60.6
2017-08-31T01:02:36.554Z,60.7
2017-08-31T01:03:38.963Z,60.6
2017-08-31T01:04:41.372Z,60.6
2017-08-31T01:05:43.779Z,60.5
2017-08-31T01:06:46.205Z,60.6
2017-08-31T01:07:48.616Z,60.5
2017-08-31T01:08:51.018Z,60.5
2017-08-31T01:09:53.429Z,60.5
2017-08-31T01:10:55.847Z,60.5
2017-08-31T01:11:58.254Z,60.5
2017-08-31T01:13:00.671Z,60.5
2017-08-31T01:14:03.079Z,60.5
2017-08-31T01:15:05.492Z,60.5
2017-08-31T01:16:07.912Z,60.4
2017-08-31T01:17:10.327Z,60.3
2017-08-31T01:18:13.069Z,60.3
2017-08-31T01:19:15.477Z,60.3
2017-08-31T01:20:17.891Z,60.4
2017-08-31T01:21:20.294Z,60.4
2017-08-31T01:22:22.703Z,60.3
2017-08-31T01:23:25.122Z,60.4
2017-08-31T01:24:27.526Z,60.3
2017-08-31T01:25:29.934Z,60.4
2017-08-31T01:26:32.346Z,60.3
2017-08-31T01:27:34.750Z,60.2
2017-08-31T01:28:37.173Z,60.3
2017-08-31T01:29:39.588Z,60.3
2017-08-31T01:30:41.983Z,60.4
2017-08-31T01:31:44.405Z,60.3
2017-08-31T01:32:46.815Z,60.2
2017-08-31T01:33:49.224Z,60.3
2017-08-31T01:34:51.643Z,60.4
2017-08-31T01:35:54.059Z,60.3
2017-08-31T01:36:56.470Z,60.3
2017-08-31T01:37:59.223Z,60.3
2017-08-31T01:39:01.632Z,60.2
2017-08-31T01:40:04.044Z,60.1
2017-08-31T01:41:06.786Z,60.2
2017-08-31T01:42:09.203Z,60.2
2017-08-31T01:43:11.615Z,60.3
2017-08-31T01:44:14.030Z,60.3
2017-08-31T01:45:16.439Z,60.3
2017-08-31T01:46:18.848Z,60.3
2017-08-31T01:47:21.264Z,60.1
2017-08-31T01:48:23.677Z,60.2
2017-08-31T01:49:26.086Z,60.1
2017-08-31T01:50:28.501Z,60.1
2017-08-31T01:51:30.919Z,60.1
2017-08-31T01:52:33.338Z,60
2017-08-31T01:53:35.750Z,60
2017-08-31T01:54:38.153Z,60
2017-08-31T01:55:40.925Z,60
2017-08-31T01:56:43.349Z,59.9
2017-08-31T01:57:45.762Z,59.9
2017-08-31T01:58:48.181Z,59.9
2017-08-31T01:59:50.586Z,59.9
2017-08-31T02:00:53.005Z,59.9
2017-08-31T02:01:55.415Z,60
2017-08-31T02:02:57.822Z,59.9
2017-08-31T02:04:00.224Z,59.9
2017-08-31T02:05:02.637Z,60
2017-08-31T02:06:05.045Z,60
2017-08-31T02:07:07.454Z,60
2017-08-31T02:08:09.864Z,60
2017-08-31T02:09:12.278Z,60
2017-08-31T02:10:14.697Z,60
2017-08-31T02:11:17.114Z,60
2017-08-31T02:12:19.525Z,60
2017-08-31T02:13:21.943Z,59.9
2017-08-31T02:14:24.720Z,59.9
2017-08-31T02:15:27.132Z,59.8
2017-08-31T02:16:29.544Z,59.8
2017-08-31T02:17:31.953Z,59.8
2017-08-31T02:18:34.369Z,59.7
2017-08-31T02:19:37.113Z,59.6
2017-08-31T02:20:39.536Z,59.7
2017-08-31T02:21:41.943Z,59.6
2017-08-31T02:22:44.353Z,59.6
2017-08-31T02:23:46.769Z,59.6
2017-08-31T02:24:49.177Z,59.6
2017-08-31T02:25:51.586Z,59.6
2017-08-31T02:26:54.004Z,59.6
2017-08-31T02:27:56.413Z,59.6
2017-08-31T02:28:58.818Z,59.6
2017-08-31T02:30:01.235Z,59.6
2017-08-31T02:31:03.641Z,59.6
2017-08-31T02:32:06.051Z,59.6
2017-08-31T02:33:08.465Z,59.5
2017-08-31T02:34:10.878Z,59.6
2017-08-31T02:35:13.625Z,59.6
2017-08-31T02:36:16.039Z,59.6
2017-08-31T02:37:18.447Z,59.6
2017-08-31T02:38:21.203Z,59.6
2017-08-31T02:39:23.629Z,59.6
2017-08-31T02:40:26.033Z,59.6
2017-08-31T02:41:28.446Z,59.6
2017-08-31T02:42:30.863Z,59.6
2017-08-31T02:43:33.606Z,59.6
2017-08-31T02:44:36.018Z,59.6
2017-08-31T02:45:38.433Z,59.6
2017-08-31T02:46:40.836Z,59.7
2017-08-31T02:47:43.242Z,59.6
2017-08-31T02:48:45.661Z,59.6
2017-08-31T02:49:48.071Z,59.6
2017-08-31T02:50:50.483Z,59.6
2017-08-31T02:51:52.905Z,59.6
2017-08-31T02:52:55.319Z,59.7
2017-08-31T02:53:57.723Z,59.6
2017-08-31T02:55:00.130Z,59.6
2017-08-31T02:56:02.548Z,59.7
2017-08-31T02:57:04.957Z,59.7
2017-08-31T02:58:07.367Z,59.7
2017-08-31T02:59:09.774Z,59.6
2017-08-31T03:00:12.188Z,59.6
2017-08-31T03:01:14.601Z,59.7
2017-08-31T03:02:17.024Z,59.7
2017-08-31T03:03:19.433Z,59.7
2017-08-31T03:04:21.855Z,59.7
2017-08-31T03:05:24.261Z,59.6
2017-08-31T03:06:26.678Z,59.7
2017-08-31T03:07:29.094Z,59.7
2017-08-31T03:08:31.844Z,59.7
2017-08-31T03:09:34.250Z,59.7
2017-08-31T03:10:36.667Z,59.7
2017-08-31T03:11:39.068Z,59.6
2017-08-31T03:12:41.492Z,59.7
2017-08-31T03:13:43.905Z,59.6
2017-08-31T03:14:46.314Z,59.7
2017-08-31T03:15:49.065Z,59.7
2017-08-31T03:16:51.477Z,59.7
2017-08-31T03:17:53.889Z,59.7
2017-08-31T03:18:56.293Z,59.8
2017-08-31T03:19:58.715Z,59.8
2017-08-31T03:21:01.125Z,59.9
2017-08-31T03:22:03.544Z,59.8
2017-08-31T03:23:06.301Z,59.8
2017-08-31T03:24:08.711Z,59.9
2017-08-31T03:25:11.120Z,59.8
2017-08-31T03:26:13.529Z,59.9
2017-08-31T03:27:15.937Z,59.8
2017-08-31T03:28:18.345Z,59.8
2017-08-31T03:29:20.761Z,59.9
2017-08-31T03:30:23.171Z,59.8
2017-08-31T03:31:25.584Z,59.8
2017-08-31T03:32:27.993Z,59.9
2017-08-31T03:33:30.407Z,59.9
2017-08-31T03:34:32.821Z,59.9
2017-08-31T03:35:35.236Z,59.8
2017-08-31T03:36:37.646Z,59.8
2017-08-31T03:37:40.055Z,59.8
2017-08-31T03:38:42.472Z,59.8
2017-08-31T03:39:44.883Z,59.9
2017-08-31T03:40:47.290Z,59.8
2017-08-31T03:41:49.700Z,59.9
2017-08-31T03:42:52.116Z,59.8
2017-08-31T03:43:54.530Z,59.9
2017-08-31T03:44:56.944Z,59.9
2017-08-31T03:45:59.339Z,59.9
2017-08-31T03:47:01.751Z,59.8
2017-08-31T03:48:04.166Z,60
2017-08-31T03:49:06.579Z,59.9
2017-08-31T03:50:08.986Z,59.9
2017-08-31T03:51:11.400Z,59.9
2017-08-31T03:52:13.818Z,60
2017-08-31T03:53:16.222Z,60
2017-08-31T03:54:18.637Z,60
2017-08-31T03:55:21.050Z,60
2017-08-31T03:56:23.462Z,60.2
2017-08-31T03:57:25.878Z,60.2
2017-08-31T03:58:28.282Z,60.3
2017-08-31T03:59:30.688Z,60.3
2017-08-31T04:00:33.113Z,60.4
2017-08-31T04:01:35.525Z,60.4
2017-08-31T04:02:37.934Z,60.4
2017-08-31T04:03:40.688Z,60.5
2017-08-31T04:04:43.094Z,60.5
2017-08-31T04:05:45.502Z,60.8
2017-08-31T04:06:47.914Z,60.8
2017-08-31T04:07:50.319Z,60.8
2017-08-31T04:08:52.730Z,60.8
2017-08-31T04:09:55.153Z,60.7
2017-08-31T04:10:57.555Z,60.7
2017-08-31T04:11:59.961Z,60.7
2017-08-31T04:13:02.376Z,60.8
2017-08-31T04:14:04.780Z,60.8
2017-08-31T04:15:07.196Z,60.8
2017-08-31T04:16:09.608Z,60.9
2017-08-31T04:17:12.013Z,60.8
2017-08-31T04:18:14.427Z,60.9
2017-08-31T04:19:16.842Z,60.9
2017-08-31T04:20:19.591Z,60.9
2017-08-31T04:21:22.004Z,60.9
2017-08-31T04:22:24.419Z,60.9
2017-08-31T04:23:26.835Z,60.8
2017-08-31T04:24:29.236Z,60.9
2017-08-31T04:25:31.655Z,60.9
2017-08-31T04:26:34.068Z,61
2017-08-31T04:27:36.482Z,60.9
2017-08-31T04:28:38.889Z,60.9
2017-08-31T04:29:41.298Z,60.9
2017-08-31T04:30:43.711Z,61
2017-08-31T04:31:46.138Z,60.9
2017-08-31T04:32:48.541Z,61
2017-08-31T04:33:50.952Z,60.9
2017-08-31T04:34:53.363Z,60.9
2017-08-31T04:35:55.774Z,61
2017-08-31T04:36:58.184Z,60.9
2017-08-31T04:38:00.604Z,60.9
2017-08-31T04:39:03.013Z,61
2017-08-31T04:40:05.425Z,61
2017-08-31T04:41:07.834Z,61
2017-08-31T04:42:10.251Z,61
2017-08-31T04:43:12.661Z,61.1
2017-08-31T04:44:15.082Z,61
2017-08-31T04:45:17.485Z,61
2017-08-31T04:46:20.245Z,61.1
2017-08-31T04:47:22.659Z,61
2017-08-31T04:48:25.071Z,61.1
2017-08-31T04:49:27.483Z,61.1
2017-08-31T04:50:29.905Z,61
2017-08-31T04:51:32.318Z,61.1
2017-08-31T04:52:34.728Z,61.1
2017-08-31T04:53:37.142Z,61.1
2017-08-31T04:54:39.557Z,61
2017-08-31T04:55:41.974Z,60.9
2017-08-31T04:56:44.721Z,61.1
2017-08-31T04:57:47.126Z,61
2017-08-31T04:58:49.539Z,60.9
2017-08-31T04:59:52.020Z,60.8
2017-08-31T05:00:54.451Z,60.7
2017-08-31T05:01:56.872Z,60.9
2017-08-31T05:02:59.284Z,61
2017-08-31T05:04:01.700Z,61
2017-08-31T05:05:04.139Z,61
2017-08-31T05:06:06.550Z,61
2017-08-31T05:07:09.658Z,61
2017-08-31T05:08:12.063Z,60.9
2017-08-31T05:09:14.488Z,61
2017-08-31T05:10:16.893Z,60.9
2017-08-31T05:11:19.307Z,60.9
2017-08-31T05:12:21.719Z,60.9
2017-08-31T05:13:24.137Z,60.9
2017-08-31T05:14:26.554Z,60.9
2017-08-31T05:15:28.969Z,60.9
2017-08-31T05:16:31.379Z,60.8
2017-08-31T05:17:33.797Z,60.8
2017-08-31T05:18:36.214Z,60.8
2017-08-31T05:19:38.622Z,60.9
2017-08-31T05:20:41.337Z,61
2017-08-31T05:21:43.754Z,60.8
2017-08-31T05:22:46.165Z,60.9
2017-08-31T05:23:48.583Z,60.8
2017-08-31T05:24:51.338Z,60.8
2017-08-31T05:25:53.746Z,60.8
2017-08-31T05:26:56.171Z,60.8
2017-08-31T05:27:58.937Z,60.7
2017-08-31T05:29:01.353Z,60.7
2017-08-31T05:30:03.775Z,60.9
2017-08-31T05:31:06.188Z,60.8
2017-08-31T05:32:08.597Z,60.8
2017-08-31T05:33:11.018Z,60.9
2017-08-31T05:34:13.433Z,60.8
2017-08-31T05:35:15.836Z,60.8
2017-08-31T05:36:18.246Z,60.8
2017-08-31T05:37:20.657Z,60.9
2017-08-31T05:38:23.075Z,60.8
2017-08-31T05:39:25.488Z,60.8
2017-08-31T05:40:27.891Z,60.8
2017-08-31T05:41:30.310Z,60.8
2017-08-31T05:42:32.732Z,60.9
2017-08-31T05:43:35.148Z,60.8
2017-08-31T05:44:38.243Z,60.8
2017-08-31T05:45:40.656Z,60.8
2017-08-31T05:46:43.060Z,60.8
2017-08-31T05:47:45.817Z,60.7
2017-08-31T05:48:48.256Z,60.7
2017-08-31T05:49:50.691Z,60.8
2017-08-31T05:50:53.093Z,60.7
2017-08-31T05:51:55.507Z,60.8
2017-08-31T05:52:57.910Z,60.8
2017-08-31T05:54:00.326Z,60.7
2017-08-31T05:55:03.096Z,60.7
2017-08-31T05:56:05.575Z,60.6
2017-08-31T05:57:07.991Z,60.7
2017-08-31T05:58:10.409Z,60.6
2017-08-31T05:59:12.819Z,60.6
2017-08-31T06:00:15.226Z,60.6
2017-08-31T06:01:17.916Z,60.7
2017-08-31T06:02:20.331Z,60.8
2017-08-31T06:03:22.745Z,60.8
2017-08-31T06:04:25.156Z,60.8
2017-08-31T06:05:27.565Z,60.9
2017-08-31T06:06:29.981Z,60.8
2017-08-31T06:07:32.400Z,60.8
2017-08-31T06:08:34.806Z,60.9
2017-08-31T06:09:37.225Z,60.8
2017-08-31T06:10:39.642Z,60.8
2017-08-31T06:11:42.048Z,60.8
2017-08-31T06:12:44.459Z,60.8
2017-08-31T06:13:46.868Z,61.1
2017-08-31T06:14:49.278Z,60.9
2017-08-31T06:15:51.703Z,60.9
2017-08-31T06:16:54.108Z,61
2017-08-31T06:17:56.524Z,60.9
2017-08-31T06:18:58.945Z,61
2017-08-31T06:20:01.696Z,61
2017-08-31T06:21:04.100Z,60.9
2017-08-31T06:22:06.515Z,61
2017-08-31T06:23:08.937Z,60.9
2017-08-31T06:24:11.349Z,60.8
2017-08-31T06:25:13.766Z,60.7
2017-08-31T06:26:16.172Z,60.7
2017-08-31T06:27:18.586Z,60.7
2017-08-31T06:28:21.002Z,60.6
2017-08-31T06:29:23.409Z,60.6
2017-08-31T06:30:25.811Z,60.6
2017-08-31T06:31:28.229Z,60.7
2017-08-31T06:32:30.634Z,60.6
2017-08-31T06:33:33.052Z,60.7
2017-08-31T06:34:35.464Z,60.5
2017-08-31T06:35:37.875Z,60.5
2017-08-31T06:36:40.293Z,60.5
2017-08-31T06:37:42.717Z,60.5
2017-08-31T06:38:45.466Z,60.6
2017-08-31T06:39:47.883Z,60.5
2017-08-31T06:40:50.293Z,60.5
2017-08-31T06:41:52.699Z,60.5
2017-08-31T06:42:55.115Z,60.5
2017-08-31T06:43:57.525Z,60.3
2017-08-31T06:44:59.939Z,60.4
2017-08-31T06:46:02.347Z,60.3
2017-08-31T06:47:04.772Z,60.3
2017-08-31T06:48:07.186Z,60.3
2017-08-31T06:49:09.593Z,60.3
2017-08-31T06:50:12.008Z,60.3
2017-08-31T06:51:14.411Z,60.4
2017-08-31T06:52:16.828Z,60.5
2017-08-31T06:53:19.244Z,60.4
2017-08-31T06:54:21.651Z,60.4
2017-08-31T06:55:24.059Z,60.5
2017-08-31T06:56:26.480Z,60.4
2017-08-31T06:57:28.891Z,60.5
2017-08-31T06:58:31.640Z,60.5
2017-08-31T06:59:34.052Z,60.5
2017-08-31T07:00:36.803Z,60.5
2017-08-31T07:01:39.222Z,60.6
2017-08-31T07:02:41.631Z,60.6
2017-08-31T07:03:44.035Z,60.6
2017-08-31T07:04:46.451Z,60.5
2017-08-31T07:05:48.872Z,60.6
2017-08-31T07:06:51.275Z,60.5
2017-08-31T07:07:53.691Z,60.6
2017-08-31T07:08:56.104Z,60.7
2017-08-31T07:09:58.519Z,60.6
2017-08-31T07:11:00.933Z,60.5
2017-08-31T07:12:03.349Z,60.5
2017-08-31T07:13:05.751Z,60.5
2017-08-31T07:14:08.177Z,60.4
2017-08-31T07:15:10.586Z,60.5
2017-08-31T07:16:12.994Z,60.5
2017-08-31T07:17:15.407Z,60.5
2017-08-31T07:18:17.830Z,60.5
2017-08-31T07:19:20.241Z,60.5
2017-08-31T07:20:22.647Z,60.5
2017-08-31T07:21:25.394Z,60.4
2017-08-31T07:22:27.810Z,60.3
2017-08-31T07:23:30.216Z,60.3
2017-08-31T07:24:32.632Z,60.2
2017-08-31T07:25:35.043Z,60.3
2017-08-31T07:26:37.453Z,60.3
2017-08-31T07:27:39.865Z,60.4
2017-08-31T07:28:42.285Z,60.5
2017-08-31T07:29:45.036Z,60.4
2017-08-31T07:30:47.455Z,60.5
2017-08-31T07:31:49.863Z,60.5
2017-08-31T07:32:52.282Z,60.5
2017-08-31T07:33:55.034Z,60.5
2017-08-31T07:34:57.440Z,60.4
2017-08-31T07:35:59.851Z,60.4
2017-08-31T07:37:02.273Z,60.4
2017-08-31T07:38:04.677Z,60.3
2017-08-31T07:39:07.106Z,60.3
2017-08-31T07:40:09.518Z,60.4
2017-08-31T07:41:11.927Z,60.4
2017-08-31T07:42:14.709Z,60.2
2017-08-31T07:43:17.124Z,60.1
2017-08-31T07:44:19.530Z,60
2017-08-31T07:45:21.945Z,60
2017-08-31T07:46:24.705Z,60
2017-08-31T07:47:27.116Z,60
2017-08-31T07:48:29.520Z,60
2017-08-31T07:49:31.934Z,60
2017-08-31T07:50:34.684Z,60
2017-08-31T07:51:37.101Z,59.9
2017-08-31T07:52:39.519Z,59.9
2017-08-31T07:53:41.919Z,59.9
2017-08-31T07:54:44.340Z,59.9
2017-08-31T07:55:46.761Z,59.9
2017-08-31T07:56:49.174Z,59.9
2017-08-31T07:57:51.583Z,60
2017-08-31T07:58:53.995Z,60
2017-08-31T07:59:56.398Z,60
2017-08-31T08:00:58.817Z,59.9
2017-08-31T08:02:01.236Z,59.9
2017-08-31T08:03:03.641Z,60
2017-08-31T08:04:06.056Z,59.9
2017-08-31T08:05:08.521Z,59.8
2017-08-31T08:06:10.935Z,59.8
2017-08-31T08:07:13.353Z,59.9
2017-08-31T08:08:15.756Z,59.9
2017-08-31T08:09:18.167Z,60
2017-08-31T08:10:20.591Z,60
2017-08-31T08:11:23.000Z,60
2017-08-31T08:12:25.749Z,60
2017-08-31T08:13:28.165Z,60
2017-08-31T08:14:30.571Z,60.2
2017-08-31T08:15:32.984Z,60.2
2017-08-31T08:16:35.737Z,60.1
2017-08-31T08:17:38.184Z,60.2
2017-08-31T08:18:40.562Z,60.1
2017-08-31T08:19:42.970Z,60.1
2017-08-31T08:20:45.375Z,60.1
2017-08-31T08:21:47.794Z,60.1
2017-08-31T08:22:50.206Z,60.1
2017-08-31T08:24:37.496Z,60
2017-08-31T08:25:39.959Z,60
2017-08-31T08:26:42.430Z,60
2017-08-31T08:27:44.919Z,59.9
2017-08-31T08:28:47.380Z,59.8
2017-08-31T08:29:49.854Z,59.8
2017-08-31T08:30:52.675Z,59.7
2017-08-31T08:31:55.143Z,59.7
2017-08-31T08:32:57.613Z,59.7
2017-08-31T08:34:00.083Z,59.8
2017-08-31T08:35:02.557Z,59.9
2017-08-31T08:36:05.034Z,59.9
2017-08-31T08:37:07.512Z,59.9
2017-08-31T08:38:09.977Z,59.9
2017-08-31T08:39:12.455Z,59.7
2017-08-31T08:40:14.929Z,59.7
2017-08-31T08:41:17.392Z,59.8
2017-08-31T08:42:19.868Z,59.8
2017-08-31T08:43:22.334Z,59.7
2017-08-31T08:44:24.802Z,59.7
2017-08-31T08:45:27.274Z,59.7
2017-08-31T08:46:29.744Z,59.6
2017-08-31T08:47:32.216Z,59.6
2017-08-31T08:48:34.686Z,59.6
2017-08-31T08:49:37.166Z,59.5
2017-08-31T08:50:39.640Z,59.5
2017-08-31T08:51:42.446Z,59.5
2017-08-31T08:52:44.926Z,59.5
2017-08-31T08:53:47.403Z,59.4
2017-08-31T08:54:49.878Z,59.4
2017-08-31T08:55:52.348Z,59.3
2017-08-31T08:56:54.821Z,59.4
2017-08-31T08:57:57.293Z,59.4
2017-08-31T08:59:00.119Z,59.3
2017-08-31T09:00:02.616Z,59.2
2017-08-31T09:01:05.430Z,59.3
2017-08-31T09:02:07.906Z,59.2
2017-08-31T09:03:10.365Z,59.2
2017-08-31T09:04:13.181Z,59.2
2017-08-31T09:05:15.656Z,59.1
2017-08-31T09:06:18.129Z,59
2017-08-31T09:07:20.601Z,59
2017-08-31T09:08:23.071Z,58.8
2017-08-31T09:09:25.542Z,58.6
2017-08-31T09:10:28.021Z,58.7
2017-08-31T09:11:30.497Z,58.7
2017-08-31T09:12:32.964Z,58.8
2017-08-31T09:13:35.440Z,58.6
2017-08-31T09:14:37.919Z,58.5
2017-08-31T09:15:40.739Z,58.5
2017-08-31T09:16:43.223Z,58.5
2017-08-31T09:17:45.693Z,58.5
2017-08-31T09:18:48.170Z,58.5
2017-08-31T09:19:50.640Z,58.3
2017-08-31T09:20:53.109Z,58.2
2017-08-31T09:21:55.932Z,58.2
2017-08-31T09:22:58.412Z,58.1
2017-08-31T09:24:00.880Z,58.1
2017-08-31T09:25:03.352Z,57.8
2017-08-31T09:26:05.845Z,57.8
2017-08-31T09:27:08.303Z,57.7
2017-08-31T09:28:10.775Z,57.7
2017-08-31T09:29:13.253Z,57.6
2017-08-31T09:30:15.730Z,57.7
2017-08-31T09:31:18.205Z,57.7
2017-08-31T09:32:20.672Z,57.8
2017-08-31T09:33:23.143Z,57.9
2017-08-31T09:34:25.953Z,57.9
2017-08-31T09:35:28.422Z,58
2017-08-31T09:36:30.905Z,58
2017-08-31T09:37:33.374Z,58
2017-08-31T09:38:35.838Z,58
2017-08-31T09:39:38.308Z,58
2017-08-31T09:40:40.784Z,57.9
2017-08-31T09:41:43.260Z,57.9
2017-08-31T09:42:46.078Z,58
2017-08-31T09:43:48.546Z,58
2017-08-31T09:44:51.023Z,58
2017-08-31T09:45:53.500Z,58
2017-08-31T09:46:55.971Z,58
2017-08-31T09:47:58.441Z,57.9
2017-08-31T09:49:00.911Z,58
2017-08-31T09:50:03.745Z,58
2017-08-31T09:51:06.217Z,58
2017-08-31T09:52:08.697Z,58.2
2017-08-31T09:53:11.172Z,58.2
2017-08-31T09:54:13.640Z,58.2
2017-08-31T09:55:16.114Z,58.2
2017-08-31T09:56:18.583Z,58.3
2017-08-31T09:57:21.058Z,58.2
2017-08-31T09:58:23.532Z,58.4
2017-08-31T09:59:26.008Z,58.4
2017-08-31T10:00:28.480Z,58.3
2017-08-31T10:01:30.951Z,58.3
2017-08-31T10:02:33.431Z,58.2
2017-08-31T10:03:35.904Z,58.2
2017-08-31T10:04:38.713Z,58
2017-08-31T10:05:41.191Z,58.1
2017-08-31T10:06:43.665Z,58.2
2017-08-31T10:07:46.141Z,58.2
2017-08-31T10:08:48.620Z,58.1
2017-08-31T10:09:51.085Z,58.1
2017-08-31T10:10:53.558Z,58
2017-08-31T10:11:56.034Z,57.9
2017-08-31T10:12:58.508Z,57.9
2017-08-31T10:14:00.973Z,58
2017-08-31T10:15:03.452Z,58
2017-08-31T10:16:05.923Z,57.9
2017-08-31T10:17:08.388Z,57.9
2017-08-31T10:18:10.862Z,58
2017-08-31T10:19:13.331Z,58
2017-08-31T10:20:15.796Z,58
2017-08-31T10:21:18.270Z,58
2017-08-31T10:22:20.739Z,58
2017-08-31T10:23:23.216Z,58.1
2017-08-31T10:24:25.696Z,58.1
2017-08-31T10:25:28.169Z,58.1
2017-08-31T10:26:30.644Z,57.9
2017-08-31T10:27:33.463Z,58
2017-08-31T10:28:35.935Z,58
2017-08-31T10:29:38.404Z,58.1
2017-08-31T10:30:40.871Z,58.2
2017-08-31T10:31:43.338Z,58.2
2017-08-31T10:32:45.808Z,58.3
2017-08-31T10:33:48.615Z,58.5
2017-08-31T10:34:51.089Z,58.4
2017-08-31T10:35:53.555Z,58.2
2017-08-31T10:36:56.033Z,58.1
2017-08-31T10:37:58.510Z,57.9
2017-08-31T10:39:00.985Z,57.9
2017-08-31T10:40:03.457Z,57.7
2017-08-31T10:41:06.301Z,57.8
2017-08-31T10:42:08.776Z,57.6
2017-08-31T10:43:11.253Z,57.4
2017-08-31T10:44:13.731Z,57.5
2017-08-31T10:45:16.210Z,57.2
2017-08-31T10:46:18.693Z,57.3
2017-08-31T10:47:21.505Z,57.2
2017-08-31T10:48:23.969Z,57.2
2017-08-31T10:49:26.442Z,57.1
2017-08-31T10:50:28.925Z,57.1
2017-08-31T10:51:31.399Z,57.1
2017-08-31T10:52:33.873Z,57.2
2017-08-31T10:53:36.347Z,57.2
2017-08-31T10:54:38.814Z,57.2
2017-08-31T10:55:41.288Z,57.5
2017-08-31T10:56:43.750Z,57.4
2017-08-31T10:57:46.216Z,57.4
2017-08-31T10:58:48.692Z,57.3
2017-08-31T10:59:51.158Z,57.3
2017-08-31T11:00:53.640Z,57.1
2017-08-31T11:01:56.108Z,57.1
2017-08-31T11:02:58.928Z,56.9
2017-08-31T11:04:01.403Z,57
2017-08-31T11:05:03.879Z,56.9
2017-08-31T11:06:06.347Z,57
2017-08-31T11:07:08.834Z,56.9
2017-08-31T11:08:11.300Z,57.1
2017-08-31T11:09:13.767Z,57.2
2017-08-31T11:10:16.236Z,57.3
2017-08-31T11:11:18.705Z,57.2
2017-08-31T11:12:21.175Z,56.9
2017-08-31T11:13:23.650Z,56.8
2017-08-31T11:14:26.124Z,56.9
2017-08-31T11:15:28.601Z,56.8
2017-08-31T11:16:31.062Z,57
2017-08-31T11:17:33.538Z,56.9
2017-08-31T11:18:36.345Z,56.8
2017-08-31T11:19:38.815Z,56.7
2017-08-31T11:20:41.295Z,56.4
2017-08-31T11:21:43.766Z,56.3
2017-08-31T11:22:46.226Z,56.4
2017-08-31T11:23:48.707Z,56.4
2017-08-31T11:24:51.176Z,56.4
2017-08-31T11:25:53.647Z,56.3
2017-08-31T11:26:56.125Z,56.4
2017-08-31T11:27:58.702Z,56.5
2017-08-31T11:29:01.188Z,56.7
2017-08-31T11:30:04.284Z,56.6
2017-08-31T11:31:07.340Z,56.6
2017-08-31T11:32:10.354Z,56.7
2017-08-31T11:33:13.290Z,56.6
2017-08-31T11:34:15.737Z,56.2
2017-08-31T11:35:18.164Z,55.7
2017-08-31T11:36:20.639Z,55.6
2017-08-31T11:37:23.146Z,55.6
2017-08-31T11:38:25.541Z,55.5
2017-08-31T11:39:28.020Z,55.6
2017-08-31T11:40:30.479Z,55.7
2017-08-31T11:41:32.948Z,55.7
2017-08-31T11:42:35.428Z,55.7
2017-08-31T11:43:37.902Z,55.8
2017-08-31T11:44:40.378Z,55.9
2017-08-31T11:45:43.185Z,55.8
2017-08-31T11:46:45.997Z,55.8
2017-08-31T11:47:48.477Z,56
2017-08-31T11:48:50.940Z,55.9
2017-08-31T11:49:53.408Z,56.1
2017-08-31T11:50:55.882Z,56.1
2017-08-31T11:51:58.353Z,56
2017-08-31T11:53:00.830Z,55.9
2017-08-31T11:54:03.646Z,56
2017-08-31T11:55:06.122Z,55.9
2017-08-31T11:56:08.596Z,56
2017-08-31T11:57:11.069Z,56.1
2017-08-31T11:58:13.537Z,56.2
2017-08-31T11:59:16.002Z,56.1
2017-08-31T12:00:18.816Z,55.9
2017-08-31T12:01:21.288Z,55.7
2017-08-31T12:02:23.764Z,55.8
2017-08-31T12:03:26.234Z,55.9
2017-08-31T12:04:28.714Z,55.9
2017-08-31T12:05:31.188Z,56
2017-08-31T12:06:33.665Z,56.1
2017-08-31T12:07:36.134Z,56.1
2017-08-31T12:08:38.616Z,56.1
2017-08-31T12:09:41.085Z,56.1
2017-08-31T12:10:43.654Z,56.2
2017-08-31T12:11:46.129Z,56.1
2017-08-31T12:12:48.608Z,56.1
2017-08-31T12:13:51.073Z,56.2
2017-08-31T12:14:53.536Z,55.9
2017-08-31T12:15:56.013Z,55.9
2017-08-31T12:16:58.482Z,56.1
2017-08-31T12:18:00.952Z,56
2017-08-31T12:19:03.775Z,56.1
2017-08-31T12:20:06.244Z,56.1
2017-08-31T12:21:08.723Z,56.3
2017-08-31T12:22:11.198Z,56.3
2017-08-31T12:23:13.657Z,56.3
2017-08-31T12:24:16.130Z,56.4
2017-08-31T12:25:18.607Z,56.5
2017-08-31T12:26:21.075Z,56.6
2017-08-31T12:27:23.547Z,56.5
2017-08-31T12:28:26.010Z,56.4
2017-08-31T12:29:28.843Z,56.5
2017-08-31T12:30:31.323Z,56.5
2017-08-31T12:31:33.791Z,56.6
2017-08-31T12:32:36.267Z,56.7
2017-08-31T12:33:38.733Z,56.7
2017-08-31T12:34:41.206Z,56.8
2017-08-31T12:35:43.680Z,57
2017-08-31T12:36:46.486Z,57.1
2017-08-31T12:37:48.947Z,57.1
2017-08-31T12:38:51.414Z,57.1
2017-08-31T12:39:53.881Z,56.9
2017-08-31T12:40:56.356Z,56.8
2017-08-31T12:41:58.818Z,56.6
2017-08-31T12:43:01.285Z,56.8
2017-08-31T12:44:04.109Z,56.8
2017-08-31T12:45:06.580Z,56.7
2017-08-31T12:46:09.442Z,56.7
2017-08-31T12:47:12.332Z,56.7
2017-08-31T12:48:14.810Z,56.6
2017-08-31T12:49:17.272Z,56.6
2017-08-31T12:50:19.754Z,56.8
2017-08-31T12:51:22.223Z,56.8
2017-08-31T12:52:24.686Z,56.8
2017-08-31T12:53:27.152Z,56.9
2017-08-31T12:54:29.615Z,57.1
2017-08-31T12:55:32.089Z,57
2017-08-31T12:56:34.910Z,56.9
2017-08-31T12:57:37.384Z,56.8
2017-08-31T12:58:40.191Z,57
2017-08-31T12:59:42.667Z,57.1
2017-08-31T13:00:45.137Z,57.1
2017-08-31T13:01:47.622Z,57.1
2017-08-31T13:02:50.093Z,57
2017-08-31T13:03:52.550Z,57
2017-08-31T13:04:55.021Z,57
2017-08-31T13:05:57.497Z,57.1
2017-08-31T13:07:00.310Z,56.9
2017-08-31T13:08:02.778Z,56.9
2017-08-31T13:09:05.242Z,57.1
2017-08-31T13:10:07.714Z,57.3
2017-08-31T13:11:10.192Z,57.4
2017-08-31T13:12:12.650Z,57.4
2017-08-31T13:13:15.120Z,57.3
2017-08-31T13:14:17.585Z,57.2
2017-08-31T13:15:20.055Z,56.9
2017-08-31T13:16:22.525Z,56.8
2017-08-31T13:17:25.002Z,56.5
2017-08-31T13:18:27.477Z,56.5
2017-08-31T13:19:29.950Z,56.5
2017-08-31T13:20:32.419Z,56.5
2017-08-31T13:21:35.236Z,56.5
2017-08-31T13:22:37.697Z,56.6
2017-08-31T13:23:40.165Z,56.6
2017-08-31T13:24:42.629Z,56.6
2017-08-31T13:25:45.097Z,56.6
2017-08-31T13:26:47.572Z,56.6
2017-08-31T13:27:50.041Z,56.8
2017-08-31T13:28:52.853Z,56.8
2017-08-31T13:29:55.326Z,56.8
2017-08-31T13:30:57.792Z,57
2017-08-31T13:32:00.265Z,57
2017-08-31T13:33:02.738Z,56.8
2017-08-31T13:34:05.204Z,56.8
2017-08-31T13:35:07.678Z,56.9
2017-08-31T13:36:10.153Z,56.9
2017-08-31T13:37:12.962Z,56.8
2017-08-31T13:38:15.433Z,56.9
2017-08-31T13:39:17.903Z,57
2017-08-31T13:40:20.714Z,57.1
2017-08-31T13:41:23.185Z,57
2017-08-31T13:42:25.649Z,56.9
2017-08-31T13:43:28.117Z,56.8
2017-08-31T13:44:30.594Z,56.7
2017-08-31T13:45:33.061Z,56.6
2017-08-31T13:46:35.535Z,56.5
2017-08-31T13:47:38.348Z,56.7
2017-08-31T13:48:40.820Z,56.6
2017-08-31T13:49:43.288Z,56.7
2017-08-31T13:50:45.751Z,56.7
2017-08-31T13:51:48.214Z,56.7
2017-08-31T13:52:50.680Z,56.5
2017-08-31T13:53:53.143Z,56.4
2017-08-31T13:54:55.613Z,56.6
2017-08-31T13:55:58.147Z,56.7
2017-08-31T13:57:00.612Z,56.6
2017-08-31T13:58:03.083Z,56.6
2017-08-31T13:59:05.554Z,56.7